Joshua, Illinois
Current Conditions -  °F | °C
As of 12:15 PM on Sunday 25 Jan 2015 (Local Time) from KGBG Reporting Station
Light Snow Light Snow  
Wind Chill: 18°   Ceiling: 900
Heat Index: 31°   Visibility: 1.7mi
Dew Point: 29°   Wind: 22mph
Humidity: 94%   Direction: 30°NNE
Pressure: 29.75"   Gusts: 32mph
Location:  40.6688°N, 90.1616°W
Report Text: KGBG 251815Z AUTO 03019G28KT 1 3/4SM -SN OVC009 M01/M02 A2975 RMK AO2 T10071016
Loading
Personal Weather Stations






























Interactive Weather Map New forecast layout! Learn more

10-Day Weather Forecast

Advertisements
Track Severe Weather on mobile